createdAt,value
2023-01-15T00:01:30.234Z,98187.59
2023-01-15T00:03:59.305Z,98197.94
2023-01-15T00:06:27.999Z,98198.94
2023-01-15T00:08:55.590Z,98192.03
2023-01-15T00:11:23.523Z,98172.44
2023-01-15T00:13:51.390Z,98264.09
2023-01-15T00:16:24.101Z,98276.56
2023-01-15T00:18:55.818Z,98272.75
2023-01-15T00:21:23.432Z,98275.59
2023-01-15T00:24:09.539Z,98286.22
2023-01-15T00:26:55.731Z,98292.72
2023-01-15T00:29:23.728Z,98321.09
2023-01-15T00:32:00.183Z,98322.84
2023-01-15T00:34:27.397Z,98340.56
2023-01-15T00:36:54.546Z,98353.50
2023-01-15T00:39:21.725Z,98361.72
2023-01-15T00:41:48.459Z,98371.06
2023-01-15T00:44:15.343Z,98394.94
2023-01-15T00:46:42.301Z,98405.13
2023-01-15T00:49:09.483Z,98410.94
2023-01-15T00:51:36.180Z,98424.44
2023-01-15T00:54:03.579Z,98433.81
2023-01-15T00:56:30.510Z,98431.97
2023-01-15T00:58:57.332Z,98450.25
2023-01-15T01:01:25.972Z,98464.44
2023-01-15T01:03:53.088Z,98473.69
2023-01-15T01:06:21.190Z,98487.28
2023-01-15T01:08:48.819Z,98481.03
2023-01-15T01:11:18.088Z,98509.56
2023-01-15T01:13:46.090Z,98509.28
2023-01-15T01:16:32.088Z,98522.91
2023-01-15T01:19:01.846Z,98533.69
2023-01-15T01:21:28.632Z,98541.50
2023-01-15T01:23:57.832Z,98555.53
2023-01-15T01:26:24.818Z,98571.00
2023-01-15T01:28:53.228Z,98589.44
2023-01-15T01:31:20.952Z,98598.25
2023-01-15T01:33:56.695Z,98617.53
2023-01-15T01:36:29.940Z,98615.53
2023-01-15T01:38:57.385Z,98617.09
2023-01-15T01:41:24.789Z,98619.22
2023-01-15T01:44:30.427Z,98619.38
2023-01-15T01:46:57.252Z,98638.06
2023-01-15T01:49:25.579Z,98629.31
2023-01-15T01:51:58.919Z,98631.16
2023-01-15T01:54:28.613Z,98627.88
2023-01-15T01:56:55.425Z,98636.84
2023-01-15T01:59:24.189Z,98644.78
2023-01-15T02:01:52.089Z,98641.53
2023-01-15T02:04:22.424Z,98653.31
2023-01-15T02:06:49.747Z,98665.22
2023-01-15T02:09:16.352Z,98666.13
2023-01-15T02:11:43.133Z,98678.44
2023-01-15T02:14:15.546Z,98682.97
2023-01-15T02:16:52.076Z,98695.44
2023-01-15T02:19:36.904Z,98683.25
2023-01-15T02:22:08.125Z,98686.09
2023-01-15T02:24:46.782Z,98683.41
2023-01-15T02:27:20.761Z,98701.28
2023-01-15T02:30:10.364Z,98708.78
2023-01-15T02:33:00.584Z,98705.94
2023-01-15T02:35:29.588Z,98712.91
2023-01-15T02:38:01.053Z,98716.19
2023-01-15T02:40:29.350Z,98727.97
2023-01-15T02:42:58.692Z,98727.81
2023-01-15T02:45:39.358Z,98730.16
2023-01-15T02:48:12.344Z,98736.50
2023-01-15T02:51:23.596Z,98747.44
2023-01-15T02:53:53.791Z,98752.94
2023-01-15T02:56:26.660Z,98750.56
2023-01-15T02:58:58.092Z,98758.06
2023-01-15T03:01:46.175Z,98767.47
2023-01-15T03:04:23.962Z,98769.97
2023-01-15T03:07:15.993Z,98760.47
2023-01-15T03:09:42.951Z,98769.25
2023-01-15T03:12:28.260Z,98768.41
2023-01-15T03:15:10.937Z,98776.16
2023-01-15T03:17:50.025Z,98770.38
2023-01-15T03:20:23.585Z,98793.66
2023-01-15T03:22:54.427Z,98785.97
2023-01-15T03:25:25.981Z,98775.91
2023-01-15T03:27:56.381Z,98794.47
2023-01-15T03:30:23.506Z,98786.38
2023-01-15T03:32:50.271Z,98782.53
2023-01-15T03:35:56.151Z,98772.34
2023-01-15T03:38:29.746Z,98789.91
2023-01-15T03:41:15.330Z,98792.34
2023-01-15T03:44:13.831Z,98783.25
2023-01-15T03:47:01.921Z,98794.06
2023-01-15T03:49:40.164Z,98802.28
2023-01-15T03:52:16.549Z,98796.44
2023-01-15T03:55:10.082Z,98798.88
2023-01-15T03:57:59.063Z,98810.19
2023-01-15T04:00:28.380Z,98811.75
2023-01-15T04:02:57.397Z,98805.38
2023-01-15T04:05:26.661Z,98827.22
2023-01-15T04:07:55.721Z,98827.94
2023-01-15T04:10:22.833Z,98836.16
2023-01-15T04:12:49.635Z,98837.16
2023-01-15T04:15:17.203Z,98842.66
2023-01-15T04:17:43.822Z,98858.00
2023-01-15T04:20:11.701Z,98838.47
2023-01-15T04:22:38.682Z,98842.19
2023-01-15T04:25:06.619Z,98835.00
2023-01-15T04:27:33.476Z,98831.88
2023-01-15T04:30:00.398Z,98847.59
2023-01-15T04:32:27.567Z,98855.81
2023-01-15T04:34:54.251Z,98859.56
2023-01-15T04:37:20.928Z,98847.41
2023-01-15T04:39:47.686Z,98847.94
2023-01-15T04:42:33.495Z,98845.31
2023-01-15T04:45:00.280Z,98850.03
2023-01-15T04:47:30.216Z,98843.91
2023-01-15T04:49:56.953Z,98856.81
2023-01-15T04:52:23.600Z,98856.81
2023-01-15T04:54:50.262Z,98868.31
2023-01-15T04:57:17.062Z,98871.81
2023-01-15T04:59:43.772Z,98863.25
2023-01-15T05:02:10.950Z,98870.38
2023-01-15T05:04:37.812Z,98872.91
2023-01-15T05:07:08.651Z,98871.81
2023-01-15T05:09:35.606Z,98872.38
2023-01-15T05:12:02.423Z,98893.09
2023-01-15T05:14:29.247Z,98880.00
2023-01-15T05:16:55.939Z,98870.47
2023-01-15T05:19:22.621Z,98872.25
2023-01-15T05:21:49.372Z,98881.78
2023-01-15T05:24:17.514Z,98879.16
2023-01-15T05:26:44.801Z,98893.63
2023-01-15T05:29:11.930Z,98883.16
2023-01-15T05:31:39.492Z,98900.31
2023-01-15T05:34:06.212Z,98899.84
2023-01-15T05:36:33.674Z,98880.72
2023-01-15T05:39:02.093Z,98902.34
2023-01-15T05:41:48.715Z,98888.50
2023-01-15T05:44:27.231Z,98890.47
2023-01-15T05:46:57.419Z,98896.69
2023-01-15T05:49:26.287Z,98896.50
2023-01-15T05:51:54.343Z,98908.84
2023-01-15T05:54:23.551Z,98905.69
2023-01-15T05:56:50.586Z,98898.41
2023-01-15T05:59:19.245Z,98902.28
2023-01-15T06:01:46.389Z,98904.59
2023-01-15T06:04:14.351Z,98897.81
2023-01-15T06:06:42.788Z,98908.06
2023-01-15T06:09:10.020Z,98909.28
2023-01-15T06:11:36.700Z,98912.50
2023-01-15T06:14:03.467Z,98914.31
2023-01-15T06:16:30.220Z,98916.91
2023-01-15T06:19:01.150Z,98909.84
2023-01-15T06:21:27.839Z,98917.81
2023-01-15T06:23:54.546Z,98921.50
2023-01-15T06:26:21.355Z,98906.88
2023-01-15T06:28:48.839Z,98913.41
2023-01-15T06:31:18.305Z,98925.31
2023-01-15T06:33:46.093Z,98922.75
2023-01-15T06:36:18.889Z,98923.78
2023-01-15T06:38:45.604Z,98935.63
2023-01-15T06:41:33.777Z,98936.16
2023-01-15T06:44:18.852Z,98927.47
2023-01-15T06:47:06.147Z,98931.66
2023-01-15T06:49:34.181Z,98934.03
2023-01-15T06:52:01.416Z,98925.03
2023-01-15T06:54:29.073Z,98926.75
2023-01-15T06:56:55.789Z,98931.16
2023-01-15T06:59:22.516Z,98927.72
2023-01-15T07:01:49.460Z,98940.75
2023-01-15T07:04:16.608Z,98936.69
2023-01-15T07:06:43.625Z,98940.22
2023-01-15T07:09:10.435Z,98952.66
2023-01-15T07:11:49.415Z,98946.28
2023-01-15T07:14:24.933Z,98963.81
2023-01-15T07:16:51.878Z,98952.41
2023-01-15T07:19:19.228Z,98963.28
2023-01-15T07:21:46.503Z,98969.88
2023-01-15T07:24:13.993Z,98968.06
2023-01-15T07:26:42.041Z,98966.44
2023-01-15T07:29:08.785Z,98971.59
2023-01-15T07:31:35.582Z,98981.53
2023-01-15T07:34:02.277Z,98986.19
2023-01-15T07:36:28.959Z,98986.03
2023-01-15T07:38:55.697Z,98981.63
2023-01-15T07:41:40.963Z,98980.91
2023-01-15T07:44:29.248Z,98976.66
2023-01-15T07:47:14.554Z,98974.78
2023-01-15T07:49:46.072Z,98978.41
2023-01-15T07:52:19.057Z,98989.66
2023-01-15T07:54:47.410Z,98992.41
2023-01-15T07:57:18.030Z,99007.41
2023-01-15T07:59:44.682Z,99015.88
2023-01-15T08:02:12.080Z,99013.31
2023-01-15T08:04:38.867Z,99005.47
2023-01-15T08:07:06.177Z,99027.72
2023-01-15T08:09:33.112Z,99019.38
2023-01-15T08:12:19.523Z,99023.56
2023-01-15T08:15:05.127Z,99017.09
2023-01-15T08:17:35.877Z,99018.91
2023-01-15T08:20:11.109Z,99015.94
2023-01-15T08:22:38.749Z,99008.38
2023-01-15T08:25:06.422Z,99019.13
2023-01-15T08:27:33.579Z,99022.06
2023-01-15T08:30:00.338Z,99013.47
2023-01-15T08:32:27.087Z,99030.78
2023-01-15T08:34:53.740Z,99044.09
2023-01-15T08:37:20.401Z,99039.78
2023-01-15T08:39:47.110Z,99033.94
2023-01-15T08:42:14.946Z,99038.66
2023-01-15T08:44:41.600Z,99042.22
2023-01-15T08:47:08.297Z,99037.78
2023-01-15T08:49:34.999Z,99055.56
2023-01-15T08:52:01.666Z,99032.84
2023-01-15T08:54:28.264Z,99043.28
2023-01-15T08:56:54.912Z,99025.91
2023-01-15T08:59:21.912Z,99045.13
2023-01-15T09:01:54.521Z,99035.44
2023-01-15T09:04:22.156Z,99046.97
2023-01-15T09:06:49.750Z,99042.34
2023-01-15T09:09:16.477Z,99060.97
2023-01-15T09:11:45.430Z,99051.63
2023-01-15T09:14:56.764Z,99048.31
2023-01-15T09:17:01.728Z,99048.22
2023-01-15T09:19:28.535Z,99032.28
2023-01-15T09:21:55.303Z,99052.50
2023-01-15T09:24:21.968Z,99037.69
2023-01-15T09:26:48.858Z,99033.88
2023-01-15T09:29:15.543Z,99034.72
2023-01-15T09:31:42.162Z,99047.47
2023-01-15T09:34:08.805Z,99044.06
2023-01-15T09:36:36.294Z,99034.72
2023-01-15T09:39:04.259Z,99047.38
2023-01-15T09:42:06.847Z,99037.69
2023-01-15T09:45:15.127Z,99058.00
2023-01-15T09:48:06.486Z,99050.06
2023-01-15T09:50:51.810Z,99049.44
2023-01-15T09:53:24.431Z,99048.72
2023-01-15T09:55:53.013Z,99035.84
2023-01-15T09:58:22.872Z,99043.53
2023-01-15T10:00:52.000Z,99031.50
2023-01-15T10:03:35.860Z,99032.13
2023-01-15T10:06:26.245Z,99033.75
2023-01-15T10:09:11.625Z,99031.03
2023-01-15T10:11:59.561Z,99033.47
2023-01-15T10:14:39.367Z,99017.06
2023-01-15T10:17:24.785Z,99030.50
2023-01-15T10:19:52.187Z,99030.56
2023-01-15T10:22:36.782Z,99020.88
2023-01-15T10:25:14.840Z,99021.47
2023-01-15T10:27:46.497Z,99027.41
2023-01-15T10:30:21.763Z,99014.31
2023-01-15T10:33:02.060Z,99006.81
2023-01-15T10:35:58.608Z,99007.06
2023-01-15T10:39:00.657Z,99014.25
2023-01-15T10:41:32.003Z,99001.28
2023-01-15T10:44:05.763Z,98989.19
2023-01-15T10:46:38.553Z,98992.94
2023-01-15T10:49:13.613Z,98974.44
2023-01-15T10:51:45.496Z,98978.28
2023-01-15T10:54:23.937Z,98980.09
2023-01-15T10:57:11.482Z,98974.59
2023-01-15T10:59:50.428Z,98991.28
2023-01-15T11:03:11.772Z,98978.13
2023-01-15T11:05:38.887Z,98970.72
2023-01-15T11:08:54.902Z,98977.53
2023-01-15T11:11:16.417Z,98974.50
2023-01-15T11:14:11.446Z,98955.91
2023-01-15T11:16:58.937Z,98978.72
2023-01-15T11:19:37.046Z,98948.47
2023-01-15T11:22:14.736Z,98947.88
2023-01-15T11:24:54.020Z,98964.25
2023-01-15T11:27:28.727Z,98964.63
2023-01-15T11:29:57.815Z,99005.69
2023-01-15T11:32:35.424Z,99026.72
2023-01-15T11:35:22.367Z,99027.63
2023-01-15T11:37:49.653Z,99003.97
2023-01-15T11:40:24.797Z,98998.41
2023-01-15T11:43:10.784Z,98985.84
2023-01-15T11:46:07.971Z,98978.59
2023-01-15T11:49:04.857Z,98961.63
2023-01-15T11:51:47.503Z,98942.50
2023-01-15T11:54:15.721Z,98948.25
2023-01-15T11:56:44.464Z,98920.59
2023-01-15T11:59:14.935Z,98953.84
2023-01-15T12:02:40.985Z,98916.06
2023-01-15T12:05:17.536Z,98929.56
2023-01-15T12:07:45.123Z,98929.91
2023-01-15T12:10:41.754Z,98927.09
2023-01-15T12:13:53.607Z,98942.75
2023-01-15T12:17:17.653Z,98929.97
2023-01-15T12:20:10.090Z,98938.06
2023-01-15T12:22:55.137Z,98946.59
2023-01-15T12:25:38.709Z,98947.94
2023-01-15T12:28:18.259Z,98935.63
2023-01-15T12:31:15.222Z,98923.25
2023-01-15T12:33:58.127Z,98926.84
2023-01-15T12:36:31.811Z,98935.19
2023-01-15T12:39:05.235Z,98901.69
2023-01-15T12:41:54.006Z,98901.16
2023-01-15T12:45:03.928Z,98894.13
2023-01-15T12:47:46.025Z,98883.75
2023-01-15T12:50:27.816Z,98877.63
2023-01-15T12:53:24.000Z,98869.16
2023-01-15T12:56:11.838Z,98876.09
2023-01-15T12:58:56.815Z,98845.59
2023-01-15T13:01:49.133Z,98827.56
2023-01-15T13:04:27.626Z,98818.97
2023-01-15T13:07:01.954Z,98828.94
2023-01-15T13:09:42.591Z,98803.63
2023-01-15T13:12:14.404Z,98798.28
2023-01-15T13:14:43.727Z,98777.66
2023-01-15T13:17:29.670Z,98799.88
2023-01-15T13:20:27.848Z,98786.69
2023-01-15T13:23:18.725Z,98800.03
2023-01-15T13:26:20.624Z,98808.25
2023-01-15T13:29:12.503Z,98793.06
2023-01-15T13:32:00.509Z,98824.69
2023-01-15T13:34:44.782Z,98823.53
2023-01-15T13:37:24.863Z,98843.19
2023-01-15T13:39:56.944Z,98854.56
2023-01-15T13:42:33.231Z,98865.41
2023-01-15T13:45:20.456Z,98880.66
2023-01-15T13:47:50.769Z,98870.19
2023-01-15T13:50:32.907Z,98875.81
2023-01-15T13:53:03.981Z,98872.16
2023-01-15T13:55:40.936Z,98893.56
2023-01-15T13:58:24.865Z,98878.69
2023-01-15T14:01:22.496Z,98890.53
2023-01-15T14:04:01.634Z,98877.34
2023-01-15T14:06:37.868Z,98898.66
2023-01-15T14:09:05.346Z,98897.66
2023-01-15T14:11:42.621Z,98881.78
2023-01-15T14:14:37.203Z,98887.28
2023-01-15T14:17:24.824Z,98883.28
2023-01-15T14:20:06.754Z,98864.69
2023-01-15T14:22:57.877Z,98871.91
2023-01-15T14:25:31.544Z,98857.47
2023-01-15T14:28:22.380Z,98848.91
2023-01-15T14:30:48.994Z,98841.56
2023-01-15T14:33:57.709Z,98847.81
2023-01-15T14:36:29.596Z,98808.31
2023-01-15T14:39:00.350Z,98801.38
2023-01-15T14:42:00.134Z,98787.41
2023-01-15T14:44:31.812Z,98765.16
2023-01-15T14:47:01.662Z,98780.31
2023-01-15T14:49:30.590Z,98778.34
2023-01-15T14:51:58.454Z,98774.44
2023-01-15T14:54:25.888Z,98769.63
2023-01-15T14:56:57.966Z,98744.19
2023-01-15T14:59:52.861Z,98767.91
2023-01-15T15:02:25.372Z,98764.50
2023-01-15T15:04:56.392Z,98750.69
2023-01-15T15:07:24.685Z,98752.38
2023-01-15T15:10:18.037Z,98720.56
2023-01-15T15:13:19.426Z,98734.28
2023-01-15T15:15:55.399Z,98721.69
2023-01-15T15:18:33.027Z,98734.16
2023-01-15T15:21:12.540Z,98732.19
2023-01-15T15:24:00.859Z,98731.22
2023-01-15T15:26:35.789Z,98731.59
2023-01-15T15:29:07.388Z,98742.09
2023-01-15T15:32:00.406Z,98748.59
2023-01-15T15:34:32.087Z,98741.63
2023-01-15T15:37:02.212Z,98742.59
2023-01-15T15:39:39.501Z,98724.75
2023-01-15T15:42:32.390Z,98723.31
2023-01-15T15:45:18.617Z,98728.22
2023-01-15T15:48:03.669Z,98723.34
2023-01-15T15:50:33.790Z,98741.00
2023-01-15T15:53:04.542Z,98734.47
2023-01-15T15:55:40.446Z,98727.41
2023-01-15T15:58:14.343Z,98708.56
2023-01-15T16:00:43.320Z,98711.63
2023-01-15T16:03:23.032Z,98710.63
2023-01-15T16:06:02.606Z,98705.47
2023-01-15T16:08:31.415Z,98696.66
2023-01-15T16:11:01.473Z,98681.56
2023-01-15T16:13:36.499Z,98673.63
2023-01-15T16:16:05.553Z,98689.53
2023-01-15T16:18:44.371Z,98685.56
2023-01-15T16:21:20.175Z,98698.66
2023-01-15T16:24:00.221Z,98673.31
2023-01-15T16:26:40.970Z,98659.47
2023-01-15T16:29:18.194Z,98682.09
2023-01-15T16:31:45.284Z,98676.16
2023-01-15T16:34:19.184Z,98683.34
2023-01-15T16:36:47.175Z,98680.47
2023-01-15T16:39:32.218Z,98675.06
2023-01-15T16:42:02.010Z,98690.16
2023-01-15T16:44:44.176Z,98692.09
2023-01-15T16:47:26.101Z,98701.38
2023-01-15T16:49:53.377Z,98711.03
2023-01-15T16:52:41.994Z,98719.56
2023-01-15T16:55:34.170Z,98700.41
2023-01-15T16:58:12.970Z,98714.09
2023-01-15T17:00:46.667Z,98713.38
2023-01-15T17:03:21.011Z,98708.88
2023-01-15T17:05:54.346Z,98701.25
2023-01-15T17:08:32.615Z,98683.75
2023-01-15T17:11:01.699Z,98676.72
2023-01-15T17:13:32.418Z,98686.97
2023-01-15T17:16:06.085Z,98648.19
2023-01-15T17:18:33.548Z,98658.03
2023-01-15T17:21:01.015Z,98663.88
2023-01-15T17:23:30.266Z,98676.56
2023-01-15T17:25:58.132Z,98666.50
2023-01-15T17:28:25.833Z,98667.50
2023-01-15T17:30:57.919Z,98661.38
2023-01-15T17:33:25.073Z,98656.00
2023-01-15T17:35:53.594Z,98661.97
2023-01-15T17:38:20.723Z,98681.25
2023-01-15T17:40:47.478Z,98682.97
2023-01-15T17:43:15.865Z,98692.03
2023-01-15T17:45:43.184Z,98728.47
2023-01-15T17:48:10.304Z,98736.00
2023-01-15T17:50:38.210Z,98737.97
2023-01-15T17:53:05.577Z,98750.50
2023-01-15T17:55:50.894Z,98753.69
2023-01-15T17:58:36.102Z,98757.38
2023-01-15T18:01:34.125Z,98736.09
2023-01-15T18:04:19.985Z,98724.09
2023-01-15T18:06:51.137Z,98734.84
2023-01-15T18:09:18.898Z,98742.22
2023-01-15T18:11:45.848Z,98739.97
2023-01-15T18:14:12.949Z,98747.47
2023-01-15T18:16:39.586Z,98742.81
2023-01-15T18:19:06.601Z,98743.00
2023-01-15T18:21:37.490Z,98746.84
2023-01-15T18:24:04.424Z,98751.88
2023-01-15T18:26:31.286Z,98744.88
2023-01-15T18:28:58.024Z,98760.75
2023-01-15T18:31:25.049Z,98761.34
2023-01-15T18:33:52.373Z,98769.94
2023-01-15T18:36:19.327Z,98766.59
2023-01-15T18:38:47.433Z,98764.28
2023-01-15T18:41:35.660Z,98772.72
2023-01-15T18:44:32.571Z,98768.16
2023-01-15T18:47:01.789Z,98779.59
2023-01-15T18:49:30.238Z,98783.47
2023-01-15T18:52:16.106Z,98795.94
2023-01-15T18:54:42.891Z,98789.16
2023-01-15T18:57:09.656Z,98794.16
2023-01-15T18:59:36.639Z,98800.28
2023-01-15T19:02:03.592Z,98818.78
2023-01-15T19:04:30.392Z,98817.81
2023-01-15T19:06:57.386Z,98815.63
2023-01-15T19:09:24.512Z,98833.88
2023-01-15T19:11:52.467Z,98831.81
2023-01-15T19:14:43.295Z,98842.81
2023-01-15T19:17:33.087Z,98838.31
2023-01-15T19:20:00.064Z,98854.72
2023-01-15T19:22:45.779Z,98855.47
2023-01-15T19:25:12.978Z,98863.66
2023-01-15T19:27:39.756Z,98873.06
2023-01-15T19:30:08.148Z,98912.31
2023-01-15T19:32:35.124Z,98879.69
2023-01-15T19:35:01.905Z,98885.09
2023-01-15T19:37:28.968Z,98892.28
2023-01-15T19:39:55.749Z,98894.63
2023-01-15T19:42:41.317Z,98895.34
2023-01-15T19:45:28.571Z,98897.16
2023-01-15T19:48:13.737Z,98908.19
2023-01-15T19:50:42.406Z,98903.19
2023-01-15T19:53:10.099Z,98899.75
2023-01-15T19:55:39.111Z,98898.91
2023-01-15T19:58:08.815Z,98907.38
2023-01-15T20:00:37.405Z,98911.75
2023-01-15T20:03:05.206Z,98926.91
2023-01-15T20:05:33.477Z,98921.56
2023-01-15T20:08:00.541Z,98904.44
2023-01-15T20:10:29.062Z,98920.19
2023-01-15T20:13:14.262Z,98923.59
2023-01-15T20:15:43.933Z,98923.63
2023-01-15T20:18:11.055Z,98937.06
2023-01-15T20:20:38.789Z,98932.16
2023-01-15T20:23:06.275Z,98937.06
2023-01-15T20:25:33.178Z,98936.97
2023-01-15T20:28:00.140Z,98930.22
2023-01-15T20:30:27.574Z,98920.56
2023-01-15T20:32:57.207Z,98923.38
2023-01-15T20:35:27.876Z,98928.38
2023-01-15T20:37:54.717Z,98930.91
2023-01-15T20:40:23.556Z,98923.81
2023-01-15T20:43:09.299Z,98929.72
2023-01-15T20:45:36.168Z,98924.22
2023-01-15T20:48:13.099Z,98919.56
2023-01-15T20:51:02.665Z,98915.91
2023-01-15T20:53:34.211Z,98921.75
2023-01-15T20:56:11.008Z,98925.69
2023-01-15T20:58:37.724Z,98915.75
2023-01-15T21:01:06.571Z,98920.03
2023-01-15T21:03:33.622Z,98923.97
2023-01-15T21:06:02.618Z,98937.03
2023-01-15T21:08:32.543Z,98934.47
2023-01-15T21:10:59.740Z,98932.16
2023-01-15T21:13:26.561Z,98928.88
2023-01-15T21:16:04.875Z,98932.41
2023-01-15T21:18:35.634Z,98925.53
2023-01-15T21:21:09.113Z,98926.25
2023-01-15T21:23:35.841Z,98933.50
2023-01-15T21:26:02.540Z,98942.31
2023-01-15T21:28:29.572Z,98928.97
2023-01-15T21:30:56.860Z,98930.91
2023-01-15T21:33:23.576Z,98935.47
2023-01-15T21:35:50.326Z,98946.25
2023-01-15T21:38:17.031Z,98928.25
2023-01-15T21:40:43.694Z,98940.88
2023-01-15T21:43:29.556Z,98958.34
2023-01-15T21:46:05.902Z,98961.78
2023-01-15T21:48:33.308Z,98975.50
2023-01-15T21:51:04.336Z,98972.91
2023-01-15T21:53:32.097Z,98981.34
2023-01-15T21:55:58.867Z,98976.31
2023-01-15T21:58:25.622Z,98980.88
2023-01-15T22:00:52.368Z,98993.34
2023-01-15T22:03:19.061Z,98996.53
2023-01-15T22:05:45.720Z,99000.19
2023-01-15T22:08:12.420Z,98999.94
2023-01-15T22:10:39.526Z,99005.31
2023-01-15T22:13:06.269Z,99015.69
2023-01-15T22:15:32.989Z,99003.84
2023-01-15T22:17:59.659Z,99018.72
2023-01-15T22:20:26.304Z,99012.00
2023-01-15T22:22:53.349Z,99023.34
2023-01-15T22:25:20.135Z,99020.81
2023-01-15T22:27:46.920Z,99022.50
2023-01-15T22:30:15.751Z,99013.97
2023-01-15T22:32:42.806Z,99018.22
2023-01-15T22:35:09.762Z,99020.66
2023-01-15T22:37:36.505Z,99013.94
2023-01-15T22:40:04.605Z,99027.03
2023-01-15T22:42:32.947Z,99014.31
2023-01-15T22:45:01.022Z,99019.94
2023-01-15T22:47:29.529Z,99018.72
2023-01-15T22:49:56.366Z,99009.47
2023-01-15T22:52:25.325Z,99016.31
2023-01-15T22:54:52.309Z,99005.56
2023-01-15T22:57:19.818Z,99018.75
2023-01-15T22:59:46.661Z,99022.28
2023-01-15T23:02:13.674Z,99019.50
2023-01-15T23:04:40.511Z,99030.97
2023-01-15T23:07:07.217Z,99036.34
2023-01-15T23:09:35.937Z,99036.69
2023-01-15T23:12:02.720Z,99035.97
2023-01-15T23:14:29.479Z,99039.28
2023-01-15T23:16:56.195Z,99036.44
2023-01-15T23:19:24.848Z,99035.22
2023-01-15T23:21:51.511Z,99037.50
2023-01-15T23:24:18.305Z,99044.59
2023-01-15T23:26:44.959Z,99038.84
2023-01-15T23:29:11.681Z,99047.16
2023-01-15T23:31:38.389Z,99045.06
2023-01-15T23:34:05.107Z,99050.72
2023-01-15T23:36:31.790Z,99053.16
2023-01-15T23:38:58.527Z,99047.94
2023-01-15T23:41:44.293Z,99042.56
2023-01-15T23:44:35.340Z,99046.88
2023-01-15T23:47:02.458Z,99047.47
2023-01-15T23:49:29.209Z,99040.75
2023-01-15T23:51:56.107Z,99036.34
2023-01-15T23:54:25.377Z,99045.16
2023-01-15T23:56:52.067Z,99035.38
2023-01-15T23:59:18.845Z,99040.75
